Terminal Aerodrome Forecast
Issued by NWS

Home | Current Version | Previous Version | Text Only | Print | Product List | Glossary On
Versions: 1 2 3 4 5 6 7 8 9 10 11
276
FTUS45 KABQ 091211 RRA
TAFTCC
TAF
KTCC 091211Z 0912/1012 25011KT P6SM SKC
     FM100100 27006KT P6SM SKC=

USA.gov is the U.S. government's official web portal to all federal, state and local government web resources and services.